createdAt,value
2016-04-21T00:00:53.895Z,999.21
2016-04-21T00:01:53.773Z,999.23
2016-04-21T00:02:53.761Z,999.19
2016-04-21T00:03:53.764Z,999.21
2016-04-21T00:04:53.766Z,999.2
2016-04-21T00:05:53.753Z,999.21
2016-04-21T00:06:53.755Z,999.17
2016-04-21T00:07:53.758Z,999.16
2016-04-21T00:08:53.746Z,999.18
2016-04-21T00:09:53.749Z,999.12
2016-04-21T00:10:53.752Z,999.1
2016-04-21T00:11:53.738Z,999.07
2016-04-21T00:12:53.741Z,999.03
2016-04-21T00:13:53.744Z,999.02
2016-04-21T00:14:53.730Z,999.01
2016-04-21T00:15:53.733Z,999.01
2016-04-21T00:16:53.735Z,998.97
2016-04-21T00:17:53.723Z,998.99
2016-04-21T00:18:53.726Z,998.97
2016-04-21T00:19:53.729Z,998.98
2016-04-21T00:20:53.716Z,998.93
2016-04-21T00:21:53.718Z,998.92
2016-04-21T00:22:53.737Z,998.88
2016-04-21T00:23:53.723Z,998.88
2016-04-21T00:24:53.710Z,998.87
2016-04-21T00:25:53.697Z,998.86
2016-04-21T00:26:53.700Z,998.83
2016-04-21T00:27:53.703Z,998.85
2016-04-21T00:28:53.690Z,998.92
2016-04-21T00:29:53.693Z,998.89
2016-04-21T00:30:53.695Z,998.89
2016-04-21T00:31:53.683Z,998.87
2016-04-21T00:32:53.685Z,998.87
2016-04-21T00:33:53.688Z,998.82
2016-04-21T00:34:53.691Z,998.78
2016-04-21T00:35:53.677Z,998.7
2016-04-21T00:36:53.681Z,998.71
2016-04-21T00:37:53.699Z,998.67
2016-04-21T00:38:53.669Z,998.68
2016-04-21T00:39:53.673Z,998.68
2016-04-21T00:40:53.660Z,998.7
2016-04-21T00:41:53.662Z,998.69
2016-04-21T00:42:53.665Z,998.73
2016-04-21T00:43:53.652Z,998.74
2016-04-21T00:44:53.655Z,998.75
2016-04-21T00:45:53.642Z,998.73
2016-04-21T00:46:53.644Z,998.77
2016-04-21T00:47:53.647Z,998.77
2016-04-21T00:48:53.634Z,998.73
2016-04-21T00:49:53.637Z,998.75
2016-04-21T00:50:53.640Z,998.65
2016-04-21T00:51:53.626Z,998.66
2016-04-21T00:52:53.646Z,998.67
2016-04-21T00:53:53.632Z,998.64
2016-04-21T00:54:53.620Z,998.62
2016-04-21T00:55:53.623Z,998.58
2016-04-21T00:56:53.609Z,998.53
2016-04-21T00:57:53.690Z,998.58
2016-04-21T00:58:53.692Z,998.56
2016-04-21T00:59:53.617Z,998.55
2016-04-21T01:00:53.604Z,998.58
2016-04-21T01:01:53.607Z,998.55
2016-04-21T01:02:53.594Z,998.52
2016-04-21T01:03:53.597Z,998.58
2016-04-21T01:04:53.615Z,998.5
2016-04-21T01:05:53.647Z,998.56
2016-04-21T01:06:53.696Z,998.53
2016-04-21T01:07:53.743Z,998.51
2016-04-21T01:08:53.775Z,998.51
2016-04-21T01:09:53.813Z,998.45
2016-04-21T01:10:53.818Z,998.45
2016-04-21T01:11:53.837Z,998.39
2016-04-21T01:12:53.856Z,998.4
2016-04-21T01:13:53.875Z,998.38
2016-04-21T01:14:53.874Z,998.34
2016-04-21T01:15:53.883Z,998.31
2016-04-21T01:16:53.876Z,998.31
2016-04-21T01:17:53.885Z,998.35
2016-04-21T01:18:53.893Z,998.34
2016-04-21T01:19:53.885Z,998.29
2016-04-21T01:20:53.890Z,998.26
2016-04-21T01:21:53.956Z,998.27
2016-04-21T01:22:53.935Z,998.27
2016-04-21T01:23:53.877Z,998.3
2016-04-21T01:24:53.882Z,998.33
2016-04-21T01:25:53.886Z,998.31
2016-04-21T01:26:53.889Z,998.34
2016-04-21T01:27:53.893Z,998.3
2016-04-21T01:28:53.880Z,998.3
2016-04-21T01:29:53.883Z,998.3
2016-04-21T01:30:53.886Z,998.31
2016-04-21T01:31:53.858Z,998.25
2016-04-21T01:32:53.876Z,998.23
2016-04-21T01:33:53.864Z,998.28
2016-04-21T01:34:53.851Z,998.28
2016-04-21T01:35:54.213Z,998.23
2016-04-21T01:36:53.857Z,998.24
2016-04-21T01:37:53.843Z,998.25
2016-04-21T01:38:53.847Z,998.22
2016-04-21T01:39:53.834Z,998.23
2016-04-21T01:40:53.852Z,998.2
2016-04-21T01:41:53.823Z,998.17
2016-04-21T01:42:53.826Z,998.21
2016-04-21T01:43:53.828Z,998.17
2016-04-21T01:44:53.816Z,998.18
2016-04-21T01:45:53.819Z,998.17
2016-04-21T01:46:53.822Z,998.18
2016-04-21T01:47:53.825Z,998.18
2016-04-21T01:48:53.811Z,998.18
2016-04-21T01:49:53.814Z,998.2
2016-04-21T01:50:53.800Z,998.15
2016-04-21T01:51:53.803Z,998.15
2016-04-21T01:52:53.791Z,998.16
2016-04-21T01:53:53.794Z,998.14
2016-04-21T01:54:53.781Z,998.12
2016-04-21T01:55:53.783Z,998.11
2016-04-21T01:56:53.786Z,998.16
2016-04-21T01:57:53.788Z,998.15
2016-04-21T01:58:53.775Z,998.14
2016-04-21T01:59:53.762Z,998.17
2016-04-21T02:00:53.765Z,998.16
2016-04-21T02:01:53.768Z,998.16
2016-04-21T02:02:53.755Z,998.14
2016-04-21T02:03:53.758Z,998.15
2016-04-21T02:04:53.760Z,998.16
2016-04-21T02:05:53.748Z,998.16
2016-04-21T02:06:53.750Z,998.16
2016-04-21T02:07:53.754Z,998.17
2016-04-21T02:08:53.740Z,998.2
2016-04-21T02:09:53.727Z,998.17
2016-04-21T02:10:53.729Z,998.17
2016-04-21T02:11:53.732Z,998.13
2016-04-21T02:12:53.719Z,998.16
2016-04-21T02:13:53.723Z,998.17
2016-04-21T02:14:53.726Z,998.17
2016-04-21T02:15:53.759Z,998.17
2016-04-21T02:16:53.698Z,998.18
2016-04-21T02:17:53.701Z,998.19
2016-04-21T02:18:53.703Z,998.18
2016-04-21T02:19:53.691Z,998.16
2016-04-21T02:20:53.695Z,998.24
2016-04-21T02:21:53.697Z,998.18
2016-04-21T02:22:53.683Z,998.22
2016-04-21T02:23:53.671Z,998.22
2016-04-21T02:24:53.675Z,998.18
2016-04-21T02:25:53.677Z,998.2
2016-04-21T02:26:53.664Z,998.18
2016-04-21T02:27:53.666Z,998.15
2016-04-21T02:28:53.669Z,998.14
2016-04-21T02:29:53.656Z,998.14
2016-04-21T02:30:53.658Z,998.15
2016-04-21T02:31:53.646Z,998.16
2016-04-21T02:32:53.648Z,998.17
2016-04-21T02:33:53.635Z,998.18
2016-04-21T02:34:53.638Z,998.17
2016-04-21T02:35:53.640Z,998.16
2016-04-21T02:36:53.628Z,998.14
2016-04-21T02:37:53.630Z,998.1
2016-04-21T02:38:53.618Z,998.11
2016-04-21T02:39:53.621Z,998.09
2016-04-21T02:40:53.607Z,998.1
2016-04-21T02:41:53.610Z,998.17
2016-04-21T02:42:53.612Z,998.2
2016-04-21T02:43:53.600Z,998.2
2016-04-21T02:44:53.603Z,998.17
2016-04-21T02:45:53.589Z,998.24
2016-04-21T02:46:53.593Z,998.23
2016-04-21T02:47:53.611Z,998.18
2016-04-21T02:48:53.582Z,998.17
2016-04-21T02:49:53.584Z,998.2
2016-04-21T02:50:53.587Z,998.17
2016-04-21T02:51:53.575Z,998.16
2016-04-21T02:52:53.561Z,998.18
2016-04-21T02:53:53.564Z,998.23
2016-04-21T02:54:53.567Z,998.2
2016-04-21T02:55:53.569Z,998.23
2016-04-21T02:56:53.556Z,998.21
2016-04-21T02:57:53.543Z,998.25
2016-04-21T02:58:53.547Z,998.24
2016-04-21T02:59:53.533Z,998.23
2016-04-21T03:00:53.536Z,998.25
2016-04-21T03:01:53.539Z,998.24
2016-04-21T03:02:53.526Z,998.27
2016-04-21T03:03:53.529Z,998.25
2016-04-21T03:04:53.516Z,998.26
2016-04-21T03:05:53.518Z,998.24
2016-04-21T03:06:53.505Z,998.22
2016-04-21T03:07:53.507Z,998.24
2016-04-21T03:08:53.495Z,998.22
2016-04-21T03:09:53.499Z,998.22
2016-04-21T03:10:53.501Z,998.24
2016-04-21T03:11:53.488Z,998.17
2016-04-21T03:12:53.490Z,998.21
2016-04-21T03:13:53.477Z,998.2
2016-04-21T03:14:53.480Z,998.21
2016-04-21T03:15:53.467Z,998.2
2016-04-21T03:16:53.470Z,998.2
2016-04-21T03:17:53.472Z,998.15
2016-04-21T03:18:53.475Z,998.2
2016-04-21T03:19:53.462Z,998.18
2016-04-21T03:20:53.449Z,998.2
2016-04-21T03:21:53.441Z,998.24
2016-04-21T03:22:53.448Z,998.23
2016-04-21T03:23:53.451Z,998.23
2016-04-21T03:24:53.437Z,998.24
2016-04-21T03:25:53.440Z,998.2
2016-04-21T03:26:53.427Z,998.18
2016-04-21T03:27:53.429Z,998.22
2016-04-21T03:28:53.418Z,998.2
2016-04-21T03:29:53.420Z,998.21
2016-04-21T03:30:53.422Z,998.21
2016-04-21T03:31:53.409Z,998.21
2016-04-21T03:32:53.412Z,998.15
2016-04-21T03:33:53.400Z,998.17
2016-04-21T03:34:53.386Z,998.18
2016-04-21T03:35:53.389Z,998.21
2016-04-21T03:36:53.376Z,998.21
2016-04-21T03:37:53.379Z,998.2
2016-04-21T03:38:53.381Z,998.17
2016-04-21T03:39:53.369Z,998.17
2016-04-21T03:40:53.371Z,998.19
2016-04-21T03:41:53.358Z,998.14
2016-04-21T03:42:53.361Z,998.16
2016-04-21T03:43:53.348Z,998.11
2016-04-21T03:44:53.350Z,998.08
2016-04-21T03:45:53.353Z,998.05
2016-04-21T03:46:53.340Z,998.1
2016-04-21T03:47:53.328Z,998.05
2016-04-21T03:48:53.330Z,998.05
2016-04-21T03:49:53.333Z,998.03
2016-04-21T03:50:53.320Z,998.07
2016-04-21T03:51:53.323Z,998.05
2016-04-21T03:52:53.309Z,998.06
2016-04-21T03:53:53.313Z,998.09
2016-04-21T03:54:53.315Z,998.08
2016-04-21T03:55:53.302Z,998.07
2016-04-21T03:56:53.290Z,998.11
2016-04-21T03:57:53.292Z,998.09
2016-04-21T03:58:53.295Z,998.15
2016-04-21T03:59:53.297Z,998.12
2016-04-21T04:00:53.284Z,998.1
2016-04-21T04:01:53.271Z,998.13
2016-04-21T04:02:53.274Z,998.13
2016-04-21T04:03:53.261Z,998.14
2016-04-21T04:04:53.295Z,998.17
2016-04-21T04:05:53.267Z,998.19
2016-04-21T04:06:53.253Z,998.17
2016-04-21T04:07:53.241Z,998.19
2016-04-21T04:08:53.258Z,998.17
2016-04-21T04:09:53.247Z,998.17
2016-04-21T04:10:53.233Z,998.18
2016-04-21T04:11:53.236Z,998.16
2016-04-21T04:12:53.238Z,998.2
2016-04-21T04:13:53.225Z,998.18
2016-04-21T04:14:53.227Z,998.2
2016-04-21T04:15:53.215Z,998.19
2016-04-21T04:16:53.202Z,998.18
2016-04-21T04:17:53.221Z,998.22
2016-04-21T04:18:53.208Z,998.19
2016-04-21T04:19:53.210Z,998.17
2016-04-21T04:20:53.197Z,998.2
2016-04-21T04:21:53.185Z,998.19
2016-04-21T04:22:53.203Z,998.22
2016-04-21T04:23:53.174Z,998.19
2016-04-21T04:24:53.177Z,998.17
2016-04-21T04:25:53.164Z,998.2
2016-04-21T04:26:53.167Z,998.17
2016-04-21T04:27:53.154Z,998.23
2016-04-21T04:28:53.156Z,998.23
2016-04-21T04:29:53.160Z,998.25
2016-04-21T04:30:53.162Z,998.23
2016-04-21T04:31:53.149Z,998.21
2016-04-21T04:32:53.136Z,998.23
2016-04-21T04:33:53.139Z,998.21
2016-04-21T04:34:53.141Z,998.23
2016-04-21T04:35:53.129Z,998.22
2016-04-21T04:36:53.131Z,998.21
2016-04-21T04:37:53.118Z,998.21
2016-04-21T04:38:53.121Z,998.22
2016-04-21T04:39:53.108Z,998.28
2016-04-21T04:40:53.111Z,998.24
2016-04-21T04:41:53.113Z,998.22
2016-04-21T04:42:53.085Z,998.25
2016-04-21T04:43:53.088Z,998.22
2016-04-21T04:44:53.091Z,998.24
2016-04-21T04:45:53.093Z,998.28
2016-04-21T04:46:53.080Z,998.3
2016-04-21T04:47:53.066Z,998.32
2016-04-21T04:48:53.070Z,998.3
2016-04-21T04:49:53.088Z,998.37
2016-04-21T04:50:53.075Z,998.37
2016-04-21T04:51:53.046Z,998.4
2016-04-21T04:52:53.049Z,998.46
2016-04-21T04:53:53.052Z,998.51
2016-04-21T04:54:53.039Z,998.51
2016-04-21T04:55:53.042Z,998.53
2016-04-21T04:56:53.044Z,998.54
2016-04-21T04:57:53.047Z,998.55
2016-04-21T04:58:53.034Z,998.55
2016-04-21T04:59:53.037Z,998.57
2016-04-21T05:00:53.023Z,998.6
2016-04-21T05:01:53.027Z,998.58
2016-04-21T05:02:53.029Z,998.58
2016-04-21T05:03:53.032Z,998.6
2016-04-21T05:04:53.019Z,998.62
2016-04-21T05:05:53.022Z,998.65
2016-04-21T05:06:53.008Z,998.66
2016-04-21T05:07:53.011Z,998.69
2016-04-21T05:08:52.999Z,998.68
2016-04-21T05:09:53.017Z,998.71
2016-04-21T05:10:53.004Z,998.65
2016-04-21T05:11:53.006Z,998.65
2016-04-21T05:12:53.009Z,998.6
2016-04-21T05:13:53.011Z,998.61
2016-04-21T05:14:53.014Z,998.62
2016-04-21T05:15:53.002Z,998.63
2016-04-21T05:16:53.005Z,998.65
2016-04-21T05:17:53.007Z,998.62
2016-04-21T05:18:53.010Z,998.59
2016-04-21T05:19:53.013Z,998.58
2016-04-21T05:20:53.016Z,998.62
2016-04-21T05:21:53.018Z,998.59
2016-04-21T05:22:53.005Z,998.63
2016-04-21T05:23:53.007Z,998.65
2016-04-21T05:24:53.010Z,998.63
2016-04-21T05:25:53.013Z,998.68
2016-04-21T05:26:52.999Z,998.69
2016-04-21T05:27:53.002Z,998.7
2016-04-21T05:28:53.005Z,998.68
2016-04-21T05:29:53.008Z,998.61
2016-04-21T05:30:53.011Z,998.66
2016-04-21T05:31:52.998Z,998.67
2016-04-21T05:32:53.005Z,998.68
2016-04-21T05:33:52.993Z,998.73
2016-04-21T05:34:53.012Z,998.7
2016-04-21T05:35:53.014Z,998.78
2016-04-21T05:36:53.000Z,998.77
2016-04-21T05:37:52.993Z,998.73
2016-04-21T05:38:52.996Z,998.76
2016-04-21T05:39:52.999Z,998.71
2016-04-21T05:40:52.987Z,998.68
2016-04-21T05:41:53.004Z,998.73
2016-04-21T05:42:52.991Z,998.7
2016-04-21T05:43:52.995Z,998.71
2016-04-21T05:44:52.997Z,998.71
2016-04-21T05:45:52.999Z,998.71
2016-04-21T05:46:53.003Z,998.73
2016-04-21T05:47:53.005Z,998.7
2016-04-21T05:48:53.008Z,998.7
2016-04-21T05:49:53.026Z,998.68
2016-04-21T05:50:53.013Z,998.71
2016-04-21T05:51:53.016Z,998.66
2016-04-21T05:52:53.018Z,998.67
2016-04-21T05:53:53.022Z,998.63
2016-04-21T05:54:53.024Z,998.55
2016-04-21T05:55:53.026Z,998.53
2016-04-21T05:56:53.030Z,998.53
2016-04-21T05:57:53.047Z,998.54
2016-04-21T05:58:53.034Z,998.52
2016-04-21T05:59:53.038Z,998.53
2016-04-21T06:00:53.071Z,998.49
2016-04-21T06:01:53.058Z,998.51
2016-04-21T06:02:53.061Z,998.48
2016-04-21T06:03:53.063Z,998.45
2016-04-21T06:04:53.066Z,998.43
2016-04-21T06:05:53.069Z,998.42
2016-04-21T06:06:53.071Z,998.4
2016-04-21T06:07:53.074Z,998.45
2016-04-21T06:08:53.092Z,998.41
2016-04-21T06:09:53.095Z,998.43
2016-04-21T06:10:53.098Z,998.39
2016-04-21T06:11:53.101Z,998.4
2016-04-21T06:12:53.103Z,998.39
2016-04-21T06:13:53.106Z,998.37
2016-04-21T06:14:53.109Z,998.4
2016-04-21T06:15:53.112Z,998.41
2016-04-21T06:16:53.114Z,998.44
2016-04-21T06:17:53.117Z,998.44
2016-04-21T06:18:53.120Z,998.47
2016-04-21T06:19:53.138Z,998.46
2016-04-21T06:20:53.125Z,998.42
2016-04-21T06:21:53.143Z,998.44
2016-04-21T06:22:53.146Z,998.42
2016-04-21T06:23:53.149Z,998.44
2016-04-21T06:24:53.135Z,998.43
2016-04-21T06:25:53.138Z,998.37
2016-04-21T06:26:53.141Z,998.32
2016-04-21T06:27:53.144Z,998.35
2016-04-21T06:28:53.146Z,998.35
2016-04-21T06:29:53.149Z,998.32
2016-04-21T06:30:53.152Z,998.29
2016-04-21T06:31:53.171Z,998.3
2016-04-21T06:32:53.174Z,998.36
2016-04-21T06:33:53.176Z,998.33
2016-04-21T06:34:53.179Z,998.29
2016-04-21T06:35:53.181Z,998.27
2016-04-21T06:36:53.199Z,998.31
2016-04-21T06:37:53.187Z,998.3
2016-04-21T06:38:53.283Z,998.29
2016-04-21T06:39:53.207Z,998.29
2016-04-21T06:40:53.226Z,998.28
2016-04-21T06:41:53.213Z,998.32
2016-04-21T06:42:53.231Z,998.25
2016-04-21T06:43:53.248Z,998.3
2016-04-21T06:44:53.237Z,998.3
2016-04-21T06:45:53.254Z,998.32
2016-04-21T06:46:53.257Z,998.31
2016-04-21T06:47:53.260Z,998.31
2016-04-21T06:48:53.279Z,998.3
2016-04-21T06:49:53.281Z,998.28
2016-04-21T06:50:53.284Z,998.3
2016-04-21T06:51:53.287Z,998.28
2016-04-21T06:52:53.305Z,998.29
2016-04-21T06:53:53.308Z,998.31
2016-04-21T06:54:53.311Z,998.32
2016-04-21T06:55:53.313Z,998.29
2016-04-21T06:56:53.316Z,998.25
2016-04-21T06:57:53.334Z,998.29
2016-04-21T06:58:53.336Z,998.3
2016-04-21T06:59:53.339Z,998.28
2016-04-21T07:00:53.358Z,998.3
2016-04-21T07:01:53.360Z,998.3
2016-04-21T07:02:53.363Z,998.29
2016-04-21T07:03:53.366Z,998.31
2016-04-21T07:04:53.384Z,998.31
2016-04-21T07:05:53.387Z,998.29
2016-04-21T07:06:53.390Z,998.28
2016-04-21T07:07:53.392Z,998.25
2016-04-21T07:08:53.410Z,998.3
2016-04-21T07:09:53.413Z,998.24
2016-04-21T07:10:53.431Z,998.24
2016-04-21T07:11:53.434Z,998.24
2016-04-21T07:12:53.437Z,998.22
2016-04-21T07:13:53.440Z,998.21
2016-04-21T07:14:53.442Z,998.21
2016-04-21T07:15:53.460Z,998.17
2016-04-21T07:16:53.462Z,998.15
2016-04-21T07:17:53.465Z,998.1
2016-04-21T07:18:53.500Z,998.06
2016-04-21T07:19:53.486Z,998.09
2016-04-21T07:20:53.490Z,998.05
2016-04-21T07:21:53.508Z,998.01
2016-04-21T07:22:53.510Z,998.04
2016-04-21T07:23:53.529Z,998
2016-04-21T07:24:53.517Z,997.94
2016-04-21T07:25:53.534Z,997.95
2016-04-21T07:26:53.537Z,997.94
2016-04-21T07:27:53.556Z,997.97
2016-04-21T07:28:53.558Z,997.95
2016-04-21T07:29:53.561Z,997.97
2016-04-21T07:30:53.579Z,997.96
2016-04-21T07:31:53.582Z,997.98
2016-04-21T07:32:53.585Z,997.95
2016-04-21T07:33:53.587Z,997.95
2016-04-21T07:34:53.590Z,997.9
2016-04-21T07:35:53.654Z,997.92
2016-04-21T07:36:53.595Z,997.94
2016-04-21T07:37:53.614Z,997.91
2016-04-21T07:38:53.632Z,997.91
2016-04-21T07:39:53.618Z,997.95
2016-04-21T07:40:53.622Z,997.95
2016-04-21T07:41:53.624Z,997.99
2016-04-21T07:42:53.627Z,997.98
2016-04-21T07:43:53.630Z,997.94
2016-04-21T07:44:53.632Z,997.93
2016-04-21T07:45:53.651Z,997.93
2016-04-21T07:46:53.637Z,997.94
2016-04-21T07:47:53.656Z,997.89
2016-04-21T07:48:53.659Z,997.9
2016-04-21T07:49:53.661Z,997.92
2016-04-21T07:50:53.664Z,997.88
2016-04-21T07:51:53.667Z,997.87
2016-04-21T07:52:53.670Z,997.86
2016-04-21T07:53:53.687Z,997.84
2016-04-21T07:54:53.690Z,997.87
2016-04-21T07:55:53.709Z,997.83
2016-04-21T07:56:53.695Z,997.82
2016-04-21T07:57:53.714Z,997.8
2016-04-21T07:58:53.717Z,997.8
2016-04-21T07:59:53.719Z,997.77
2016-04-21T08:00:53.738Z,997.8
2016-04-21T08:01:53.740Z,997.78
2016-04-21T08:02:53.744Z,997.81
2016-04-21T08:03:53.761Z,997.83
2016-04-21T08:04:53.779Z,997.83
2016-04-21T08:05:53.783Z,997.83
2016-04-21T08:06:53.785Z,997.83
2016-04-21T08:07:53.804Z,997.83
2016-04-21T08:08:53.807Z,997.84
2016-04-21T08:09:53.809Z,997.84
2016-04-21T08:10:53.827Z,997.82
2016-04-21T08:11:53.829Z,997.83
2016-04-21T08:12:53.832Z,997.85
2016-04-21T08:13:53.851Z,997.84
2016-04-21T08:14:53.854Z,997.84
2016-04-21T08:15:53.872Z,997.82
2016-04-21T08:16:53.874Z,997.79
2016-04-21T08:17:53.893Z,997.82
2016-04-21T08:18:53.879Z,997.83
2016-04-21T08:19:53.899Z,997.82
2016-04-21T08:20:53.932Z,997.82
2016-04-21T08:21:53.920Z,997.81
2016-04-21T08:22:53.922Z,997.78
2016-04-21T08:23:53.924Z,997.82
2016-04-21T08:24:53.943Z,997.8
2016-04-21T08:25:53.961Z,997.76
2016-04-21T08:26:53.964Z,997.79
2016-04-21T08:27:54.028Z,997.8
2016-04-21T08:28:53.986Z,997.82
2016-04-21T08:29:53.988Z,997.75
2016-04-21T08:30:53.990Z,997.76
2016-04-21T08:31:54.009Z,997.75
2016-04-21T08:32:54.011Z,997.72
2016-04-21T08:33:54.014Z,997.69
2016-04-21T08:34:54.033Z,997.69
2016-04-21T08:35:54.035Z,997.7
2016-04-21T08:36:54.038Z,997.66
2016-04-21T08:37:54.055Z,997.66
2016-04-21T08:38:54.058Z,997.66
2016-04-21T08:39:54.077Z,997.69
2016-04-21T08:40:54.079Z,997.65
2016-04-21T08:41:54.083Z,997.66
2016-04-21T08:42:54.101Z,997.68
2016-04-21T08:43:54.104Z,997.65
2016-04-21T08:44:54.107Z,997.64
2016-04-21T08:45:54.124Z,997.64
2016-04-21T08:46:54.126Z,997.62
2016-04-21T08:47:54.130Z,997.59
2016-04-21T08:48:54.149Z,997.55
2016-04-21T08:49:54.151Z,997.58
2016-04-21T08:50:54.153Z,997.55
2016-04-21T08:51:54.156Z,997.62
2016-04-21T08:52:54.164Z,997.59
2016-04-21T08:53:54.167Z,997.57
2016-04-21T08:54:54.169Z,997.56
2016-04-21T08:55:54.187Z,997.56
2016-04-21T08:56:54.189Z,997.58
2016-04-21T08:57:54.192Z,997.56
2016-04-21T08:58:54.195Z,997.54
2016-04-21T08:59:54.197Z,997.57
2016-04-21T09:00:54.200Z,997.54
2016-04-21T09:01:54.204Z,997.52
2016-04-21T09:02:54.222Z,997.54
2016-04-21T09:03:54.208Z,997.53
2016-04-21T09:04:54.227Z,997.51
2016-04-21T09:05:54.230Z,997.48
2016-04-21T09:06:54.233Z,997.47
2016-04-21T09:07:54.235Z,997.51
2016-04-21T09:08:54.238Z,997.49
2016-04-21T09:09:54.241Z,997.49
2016-04-21T09:10:54.243Z,997.49
2016-04-21T09:11:54.246Z,997.49
2016-04-21T09:12:54.248Z,997.48
2016-04-21T09:13:54.252Z,997.5
2016-04-21T09:14:54.255Z,997.48
2016-04-21T09:15:54.257Z,997.44
2016-04-21T09:16:54.259Z,997.42
2016-04-21T09:17:54.262Z,997.44
2016-04-21T09:18:54.280Z,997.43
2016-04-21T09:19:54.268Z,997.48
2016-04-21T09:20:54.286Z,997.46
2016-04-21T09:21:54.289Z,997.42
2016-04-21T09:22:54.291Z,997.39
2016-04-21T09:23:54.294Z,997.38
2016-04-21T09:24:54.297Z,997.38
2016-04-21T09:25:54.300Z,997.37
2016-04-21T09:26:54.303Z,997.38
2016-04-21T09:27:54.306Z,997.36
2016-04-21T09:28:54.308Z,997.38
2016-04-21T09:29:54.311Z,997.37
2016-04-21T09:30:54.313Z,997.33
2016-04-21T09:31:54.316Z,997.37
2016-04-21T09:32:54.333Z,997.36
2016-04-21T09:33:54.321Z,997.33
2016-04-21T09:34:54.324Z,997.33
2016-04-21T09:35:54.327Z,997.38
2016-04-21T09:36:54.329Z,997.33
2016-04-21T09:37:54.332Z,997.34
2016-04-21T09:38:54.334Z,997.31
2016-04-21T09:39:54.338Z,997.33
2016-04-21T09:40:54.355Z,997.3
2016-04-21T09:41:54.343Z,997.28
2016-04-21T09:42:54.360Z,997.25
2016-04-21T09:43:54.348Z,997.29
2016-04-21T09:44:54.366Z,997.27
2016-04-21T09:45:54.353Z,997.22
2016-04-21T09:46:54.371Z,997.25
2016-04-21T09:47:54.374Z,997.25
2016-04-21T09:48:54.376Z,997.2
2016-04-21T09:49:54.380Z,997.17
2016-04-21T09:50:54.382Z,997.2
2016-04-21T09:51:54.384Z,997.15
2016-04-21T09:52:54.388Z,997.16
2016-04-21T09:53:54.390Z,997.11
2016-04-21T09:54:54.393Z,997.16
2016-04-21T09:55:54.396Z,997.18
2016-04-21T09:56:54.414Z,997.21
2016-04-21T09:57:54.401Z,997.21
2016-04-21T09:58:54.403Z,997.2
2016-04-21T09:59:54.407Z,997.19
2016-04-21T10:00:54.425Z,997.2
2016-04-21T10:01:54.412Z,997.22
2016-04-21T10:02:54.431Z,997.18
2016-04-21T10:03:54.433Z,997.18
2016-04-21T10:04:54.435Z,997.18
2016-04-21T10:05:54.438Z,997.16
2016-04-21T10:06:54.441Z,997.13
2016-04-21T10:07:54.460Z,997.12
2016-04-21T10:08:54.446Z,997.1
2016-04-21T10:09:54.449Z,997.12
2016-04-21T10:10:54.484Z,997.1
2016-04-21T10:11:54.547Z,997.14
2016-04-21T10:12:54.577Z,997.08
2016-04-21T10:13:54.640Z,997.05
2016-04-21T10:14:54.687Z,997.02
2016-04-21T10:15:54.713Z,997.07
2016-04-21T10:16:54.732Z,997.08
2016-04-21T10:17:54.765Z,997.05
2016-04-21T10:18:54.769Z,997.06
2016-04-21T10:19:54.788Z,997.03
2016-04-21T10:20:54.798Z,997.02
2016-04-21T10:21:54.821Z,997.04
2016-04-21T10:22:54.816Z,997.03
2016-04-21T10:23:54.824Z,997.07
2016-04-21T10:24:54.847Z,997.05
2016-04-21T10:25:54.838Z,997.03
2016-04-21T10:26:54.857Z,997.06
2016-04-21T10:27:54.862Z,997.05
2016-04-21T10:28:54.867Z,997.01
2016-04-21T10:29:54.872Z,997.05
2016-04-21T10:30:54.876Z,997.02
2016-04-21T10:31:54.879Z,996.98
2016-04-21T10:32:54.882Z,997.03
2016-04-21T10:33:54.885Z,997.02
2016-04-21T10:34:54.905Z,996.94
2016-04-21T10:35:54.908Z,997.03
2016-04-21T10:36:54.911Z,997.01
2016-04-21T10:37:54.930Z,997.01
2016-04-21T10:38:54.917Z,997.01
2016-04-21T10:39:54.920Z,996.98
2016-04-21T10:40:54.938Z,996.96
2016-04-21T10:41:54.926Z,996.94
2016-04-21T10:42:54.944Z,996.92
2016-04-21T10:43:54.946Z,996.89
2016-04-21T10:44:54.949Z,996.88
2016-04-21T10:45:54.968Z,996.84
2016-04-21T10:46:54.954Z,996.88
2016-04-21T10:47:54.974Z,996.84
2016-04-21T10:48:54.976Z,996.87
2016-04-21T10:49:54.979Z,996.8
2016-04-21T10:50:54.982Z,996.83
2016-04-21T10:51:54.984Z,996.79
2016-04-21T10:52:54.987Z,996.82
2016-04-21T10:53:54.990Z,996.77
2016-04-21T10:54:54.992Z,996.74
2016-04-21T10:55:54.995Z,996.76
2016-04-21T10:56:54.997Z,996.73
2016-04-21T10:57:55.016Z,996.74
2016-04-21T10:58:55.019Z,996.78
2016-04-21T10:59:55.021Z,996.72
2016-04-21T11:00:55.024Z,996.71
2016-04-21T11:01:55.027Z,996.7
2016-04-21T11:02:55.030Z,996.72
2016-04-21T11:03:55.032Z,996.69
2016-04-21T11:04:55.050Z,996.67
2016-04-21T11:05:55.053Z,996.61
2016-04-21T11:06:55.056Z,996.63
2016-04-21T11:07:55.058Z,996.67
2016-04-21T11:08:55.061Z,996.63
2016-04-21T11:09:55.063Z,996.57
2016-04-21T11:10:55.066Z,996.57
2016-04-21T11:11:55.069Z,996.53
2016-04-21T11:12:55.088Z,996.57
2016-04-21T11:13:55.090Z,996.55
2016-04-21T11:14:55.093Z,996.53
2016-04-21T11:15:55.096Z,996.6
2016-04-21T11:16:55.099Z,996.5
2016-04-21T11:17:55.100Z,996.52
2016-04-21T11:18:55.119Z,996.48
2016-04-21T11:19:55.122Z,996.43
2016-04-21T11:20:55.125Z,996.41
2016-04-21T11:21:55.127Z,996.4
2016-04-21T11:22:55.131Z,996.36
2016-04-21T11:23:55.148Z,996.4
2016-04-21T11:24:55.136Z,996.36
2016-04-21T11:25:55.153Z,996.35
2016-04-21T11:26:55.156Z,996.36
2016-04-21T11:27:55.159Z,996.32
2016-04-21T11:28:55.162Z,996.28
2016-04-21T11:29:55.164Z,996.3
2016-04-21T11:30:55.167Z,996.26
2016-04-21T11:31:55.169Z,996.22
2016-04-21T11:32:55.188Z,996.21
2016-04-21T11:33:55.191Z,996.17
2016-04-21T11:34:55.194Z,996.13
2016-04-21T11:35:55.196Z,996.11
2016-04-21T11:36:55.199Z,996.09
2016-04-21T11:37:55.216Z,996.1
2016-04-21T11:38:55.204Z,996.06
2016-04-21T11:39:55.222Z,996.03
2016-04-21T11:40:55.225Z,996.03
2016-04-21T11:41:55.228Z,996.06
2016-04-21T11:42:55.230Z,996.02
2016-04-21T11:43:55.233Z,995.97
2016-04-21T11:44:55.236Z,995.94
2016-04-21T11:45:55.271Z,995.96
2016-04-21T11:46:55.257Z,995.96
2016-04-21T11:47:55.259Z,995.98
2016-04-21T11:48:55.278Z,995.96
2016-04-21T11:49:55.265Z,995.94
2016-04-21T11:50:55.284Z,995.9
2016-04-21T11:51:55.287Z,995.92
2016-04-21T11:52:55.289Z,995.88
2016-04-21T11:53:55.322Z,995.88
2016-04-21T11:54:55.325Z,995.89
2016-04-21T11:55:55.297Z,995.85
2016-04-21T11:56:55.315Z,995.81
2016-04-21T11:57:55.318Z,995.8
2016-04-21T11:58:55.320Z,995.81
2016-04-21T11:59:55.323Z,995.77
2016-04-21T12:00:55.325Z,995.71
2016-04-21T12:01:55.328Z,995.67
2016-04-21T12:02:55.331Z,995.68
2016-04-21T12:03:55.350Z,995.66
2016-04-21T12:04:55.353Z,995.6
2016-04-21T12:05:55.355Z,995.62
2016-04-21T12:06:55.358Z,995.59
2016-04-21T12:07:55.376Z,995.6
2016-04-21T12:08:55.379Z,995.58
2016-04-21T12:09:55.382Z,995.55
2016-04-21T12:10:55.384Z,995.5
2016-04-21T12:11:55.387Z,995.52
2016-04-21T12:12:55.390Z,995.5
2016-04-21T12:13:55.392Z,995.45
2016-04-21T12:14:55.395Z,995.4
2016-04-21T12:15:55.413Z,995.41
2016-04-21T12:16:55.401Z,995.38
2016-04-21T12:17:55.418Z,995.37
2016-04-21T12:18:55.421Z,995.36
2016-04-21T12:19:55.423Z,995.33
2016-04-21T12:20:55.426Z,995.35
2016-04-21T12:21:55.445Z,995.32
2016-04-21T12:22:55.447Z,995.31
2016-04-21T12:23:55.451Z,995.32
2016-04-21T12:24:55.468Z,995.31
2016-04-21T12:25:55.456Z,995.29
2016-04-21T12:26:55.458Z,995.27
2016-04-21T12:27:55.462Z,995.26
2016-04-21T12:28:55.464Z,995.28
2016-04-21T12:29:55.481Z,995.2
2016-04-21T12:30:55.484Z,995.16
2016-04-21T12:31:55.487Z,995.15